createdAt,value
2022-10-11T00:02:13.122Z,0.80
2022-10-11T00:04:40.927Z,1.00
2022-10-11T00:07:08.863Z,1.00
2022-10-11T00:09:36.715Z,0.83
2022-10-11T00:12:04.941Z,0.80
2022-10-11T00:14:33.927Z,0.60
2022-10-11T00:17:01.760Z,0.70
2022-10-11T00:19:31.046Z,0.80
2022-10-11T00:21:58.857Z,0.67
2022-10-11T00:24:26.660Z,0.90
2022-10-11T00:26:54.465Z,0.70
2022-10-11T00:29:22.273Z,0.93
2022-10-11T00:31:50.185Z,1.00
2022-10-11T00:34:18.113Z,1.53
2022-10-11T00:36:47.364Z,0.73
2022-10-11T00:39:15.311Z,0.80
2022-10-11T00:41:43.233Z,0.80
2022-10-11T00:44:17.388Z,0.90
2022-10-11T00:46:54.973Z,1.60
2022-10-11T00:49:31.424Z,1.07
2022-10-11T00:52:04.572Z,1.50
2022-10-11T00:54:35.474Z,1.60
2022-10-11T00:57:06.302Z,1.20
2022-10-11T00:59:39.261Z,0.70
2022-10-11T01:02:07.982Z,1.43
2022-10-11T01:04:36.495Z,1.50
2022-10-11T01:07:05.802Z,0.83
2022-10-11T01:09:34.401Z,1.00
2022-10-11T01:12:04.527Z,1.40
2022-10-11T01:15:02.733Z,1.83
2022-10-11T01:17:40.880Z,0.90
2022-10-11T01:20:31.995Z,1.13
2022-10-11T01:23:42.396Z,1.00
2022-10-11T01:26:35.535Z,1.60
2022-10-11T01:29:13.424Z,1.70
2022-10-11T01:31:50.095Z,1.90
2022-10-11T01:34:26.196Z,1.03
2022-10-11T01:36:59.891Z,1.80
2022-10-11T01:39:33.192Z,1.50
2022-10-11T01:42:04.500Z,1.00
2022-10-11T01:44:35.362Z,1.37
2022-10-11T01:47:04.711Z,2.50
2022-10-11T01:49:32.514Z,1.63
2022-10-11T01:52:05.336Z,1.33
2022-10-11T01:55:09.270Z,1.90
2022-10-11T01:57:49.084Z,1.97
2022-10-11T02:00:19.371Z,1.50
2022-10-11T02:03:02.019Z,1.40
2022-10-11T02:05:36.138Z,1.43
2022-10-11T02:08:10.026Z,1.90
2022-10-11T02:10:41.791Z,1.30
2022-10-11T02:13:14.215Z,1.20
2022-10-11T02:15:45.519Z,2.17
2022-10-11T02:18:18.591Z,1.60
2022-10-11T02:20:48.172Z,1.90
2022-10-11T02:23:21.432Z,1.57
2022-10-11T02:25:50.140Z,1.73
2022-10-11T02:28:21.161Z,1.67
2022-10-11T02:30:52.158Z,1.00
2022-10-11T02:33:27.872Z,1.30
2022-10-11T02:36:04.056Z,1.40
2022-10-11T02:38:38.409Z,0.90
2022-10-11T02:41:14.837Z,1.10
2022-10-11T02:43:46.457Z,1.47
2022-10-11T02:46:17.669Z,1.83
2022-10-11T02:48:46.965Z,1.43
2022-10-11T02:51:15.846Z,1.00
2022-10-11T02:53:43.678Z,1.03
2022-10-11T02:56:11.511Z,1.20
2022-10-11T02:58:39.350Z,1.63
2022-10-11T03:01:07.426Z,0.90
2022-10-11T03:03:35.475Z,1.00
2022-10-11T03:06:05.668Z,1.30
2022-10-11T03:08:34.003Z,1.20
2022-10-11T03:11:01.887Z,1.00
2022-10-11T03:13:29.755Z,0.90
2022-10-11T03:16:03.322Z,1.20
2022-10-11T03:18:31.604Z,1.10
2022-10-11T03:20:59.464Z,0.70
2022-10-11T03:23:28.695Z,0.70
2022-10-11T03:25:56.516Z,0.80
2022-10-11T03:28:24.380Z,0.80
2022-10-11T03:30:52.839Z,0.87
2022-10-11T03:33:21.089Z,0.80
2022-10-11T03:35:49.882Z,0.80
2022-10-11T03:38:20.156Z,0.93
2022-10-11T03:40:49.439Z,1.20
2022-10-11T03:43:17.324Z,0.70
2022-10-11T03:45:45.156Z,0.70
2022-10-11T03:48:13.589Z,0.73
2022-10-11T03:50:41.427Z,1.07
2022-10-11T03:53:09.404Z,0.70
2022-10-11T03:55:39.704Z,0.87
2022-10-11T03:58:09.363Z,0.90
2022-10-11T04:00:37.584Z,0.60
2022-10-11T04:03:05.508Z,0.70
2022-10-11T04:05:33.350Z,0.97
2022-10-11T04:08:01.191Z,1.20
2022-10-11T04:10:31.252Z,0.93
2022-10-11T04:12:59.241Z,1.40
2022-10-11T04:15:28.363Z,2.10
2022-10-11T04:17:56.192Z,0.93
2022-10-11T04:20:24.219Z,0.77
2022-10-11T04:22:52.103Z,0.70
2022-10-11T04:25:19.930Z,0.87
2022-10-11T04:27:47.825Z,0.60
2022-10-11T04:30:16.306Z,1.20
2022-10-11T04:32:46.049Z,0.90
2022-10-11T04:35:13.920Z,0.90
2022-10-11T04:37:41.880Z,0.70
2022-10-11T04:40:11.312Z,0.70
2022-10-11T04:42:39.131Z,0.70
2022-10-11T04:45:09.327Z,0.67
2022-10-11T04:47:37.288Z,0.70
2022-10-11T04:50:07.985Z,0.60
2022-10-11T04:52:35.768Z,0.80
2022-10-11T04:55:03.625Z,0.80
2022-10-11T04:57:31.477Z,0.60
2022-10-11T04:59:59.272Z,0.60
2022-10-11T05:02:27.213Z,0.60
2022-10-11T05:04:55.106Z,0.70
2022-10-11T05:07:24.241Z,0.73
2022-10-11T05:09:52.048Z,0.70
2022-10-11T05:12:19.920Z,1.03
2022-10-11T05:14:47.745Z,0.80
2022-10-11T05:17:15.602Z,0.60
2022-10-11T05:19:43.497Z,0.90
2022-10-11T05:22:11.323Z,0.70
2022-10-11T05:24:40.496Z,0.60
2022-10-11T05:27:08.306Z,0.60
2022-10-11T05:29:36.134Z,0.60
2022-10-11T05:32:04.021Z,0.60
2022-10-11T05:34:31.810Z,0.60
2022-10-11T05:36:59.732Z,0.67
2022-10-11T05:39:27.564Z,0.60
2022-10-11T05:41:56.885Z,0.60
2022-10-11T05:44:25.028Z,1.13
2022-10-11T05:46:52.880Z,0.63
2022-10-11T05:49:20.727Z,0.60
2022-10-11T05:51:48.585Z,0.60
2022-10-11T05:54:16.436Z,0.60
2022-10-11T05:56:44.524Z,0.60
2022-10-11T05:59:13.834Z,0.60
2022-10-11T06:01:41.813Z,1.10
2022-10-11T06:04:11.681Z,0.90
2022-10-11T06:06:39.496Z,0.90
2022-10-11T06:09:07.294Z,0.70
2022-10-11T06:11:35.140Z,0.63
2022-10-11T06:14:02.966Z,0.60
2022-10-11T06:16:32.407Z,0.60
2022-10-11T06:19:00.256Z,1.33
2022-10-11T06:21:28.091Z,0.80
2022-10-11T06:24:01.186Z,0.73
2022-10-11T06:26:29.755Z,0.60
2022-10-11T06:28:57.766Z,0.60
2022-10-11T06:31:26.116Z,0.60
2022-10-11T06:33:55.361Z,0.70
2022-10-11T06:36:23.202Z,0.70
2022-10-11T06:38:52.939Z,0.70
2022-10-11T06:41:22.795Z,0.60
2022-10-11T06:43:50.771Z,0.60
2022-10-11T06:46:20.112Z,0.63
2022-10-11T06:48:49.236Z,0.70
2022-10-11T06:51:20.001Z,0.60
2022-10-11T06:53:51.122Z,0.70
2022-10-11T06:56:19.737Z,0.67
2022-10-11T06:58:47.720Z,0.60
2022-10-11T07:01:19.048Z,0.67
2022-10-11T07:03:47.152Z,0.60
2022-10-11T07:06:19.667Z,0.70
2022-10-11T07:08:48.222Z,0.60
2022-10-11T07:11:17.625Z,0.60
2022-10-11T07:13:50.331Z,1.73
2022-10-11T07:16:19.091Z,0.80
2022-10-11T07:18:47.224Z,0.60
2022-10-11T07:21:18.059Z,0.60
2022-10-11T07:23:45.913Z,0.60
2022-10-11T07:26:14.021Z,0.60
2022-10-11T07:28:42.361Z,0.63
2022-10-11T07:31:12.943Z,0.60
2022-10-11T07:33:40.873Z,0.70
2022-10-11T07:36:09.681Z,0.60
2022-10-11T07:38:40.214Z,0.60
2022-10-11T07:41:09.245Z,0.60
2022-10-11T07:43:37.689Z,0.70
2022-10-11T07:46:07.158Z,0.60
2022-10-11T07:48:37.984Z,0.70
2022-10-11T07:51:07.799Z,0.70
2022-10-11T07:53:41.764Z,0.70
2022-10-11T07:56:12.347Z,0.70
2022-10-11T07:58:40.734Z,0.60
2022-10-11T08:01:09.101Z,0.60
2022-10-11T08:03:37.662Z,0.90
2022-10-11T08:06:07.789Z,0.70
2022-10-11T08:08:35.951Z,0.60
2022-10-11T08:11:05.789Z,0.70
2022-10-11T08:13:34.058Z,0.60
2022-10-11T08:16:02.486Z,0.83
2022-10-11T08:18:31.040Z,0.60
2022-10-11T08:20:58.859Z,0.63
2022-10-11T08:23:26.681Z,0.63
2022-10-11T08:25:58.206Z,1.00
2022-10-11T08:28:27.478Z,0.60
2022-10-11T08:30:56.279Z,0.60
2022-10-11T08:33:26.038Z,0.60
2022-10-11T08:35:57.133Z,0.70
2022-10-11T08:38:25.568Z,0.60
2022-10-11T08:40:56.210Z,0.60
2022-10-11T08:43:33.896Z,0.63
2022-10-11T08:46:04.117Z,0.60
2022-10-11T08:48:36.474Z,0.60
2022-10-11T08:51:10.435Z,0.70
2022-10-11T08:53:45.353Z,0.60
2022-10-11T08:56:15.455Z,0.60
2022-10-11T08:58:50.656Z,0.60
2022-10-11T09:01:22.565Z,0.60
2022-10-11T09:03:51.488Z,0.60
2022-10-11T09:06:43.107Z,0.60
2022-10-11T09:09:36.893Z,0.60
2022-10-11T09:12:17.104Z,0.70
2022-10-11T09:14:59.010Z,0.60
2022-10-11T09:17:38.673Z,0.60
2022-10-11T09:20:39.864Z,0.60
2022-10-11T09:23:22.507Z,0.60
2022-10-11T09:25:55.818Z,0.50
2022-10-11T09:28:30.402Z,0.70
2022-10-11T09:31:01.012Z,0.60
2022-10-11T09:33:34.165Z,0.80
2022-10-11T09:36:06.898Z,0.70
2022-10-11T09:38:42.038Z,0.60
2022-10-11T09:41:15.796Z,0.60
2022-10-11T09:43:48.493Z,0.57
2022-10-11T09:46:24.578Z,0.60
2022-10-11T09:48:54.511Z,0.60
2022-10-11T09:51:25.085Z,0.63
2022-10-11T09:53:58.196Z,0.60
2022-10-11T09:56:28.453Z,1.07
2022-10-11T09:59:36.112Z,0.70
2022-10-11T10:02:25.041Z,0.60
2022-10-11T10:04:57.561Z,0.60
2022-10-11T10:07:25.686Z,0.73
2022-10-11T10:09:53.811Z,0.60
2022-10-11T10:12:23.473Z,0.60
2022-10-11T10:15:06.205Z,0.60
2022-10-11T10:17:37.063Z,0.60
2022-10-11T10:20:06.277Z,0.60
2022-10-11T10:22:36.396Z,0.70
2022-10-11T10:25:08.073Z,0.60
2022-10-11T10:27:36.276Z,0.60
2022-10-11T10:30:14.292Z,0.60
2022-10-11T10:32:49.813Z,0.60
2022-10-11T10:35:31.603Z,0.60
2022-10-11T10:38:07.662Z,0.60
2022-10-11T10:40:42.490Z,0.60
2022-10-11T10:43:16.412Z,0.70
2022-10-11T10:46:06.799Z,0.70
2022-10-11T10:49:23.308Z,0.70
2022-10-11T10:51:42.944Z,0.60
2022-10-11T10:54:24.471Z,0.60
2022-10-11T10:56:54.421Z,0.60
2022-10-11T10:59:43.140Z,0.60
2022-10-11T11:02:38.979Z,0.50
2022-10-11T11:05:17.439Z,0.60
2022-10-11T11:07:49.466Z,0.60
2022-10-11T11:10:21.861Z,0.60
2022-10-11T11:12:57.582Z,0.60
2022-10-11T11:15:36.978Z,0.50
2022-10-11T11:18:21.225Z,0.60
2022-10-11T11:21:08.905Z,0.60
2022-10-11T11:23:43.504Z,0.50
2022-10-11T11:26:17.751Z,0.60
2022-10-11T11:28:55.945Z,1.20
2022-10-11T11:31:37.746Z,0.60
2022-10-11T11:34:14.293Z,0.60
2022-10-11T11:36:46.598Z,0.50
2022-10-11T11:39:18.888Z,0.60
2022-10-11T11:41:52.282Z,0.60
2022-10-11T11:44:27.422Z,0.60
2022-10-11T11:47:00.243Z,0.60
2022-10-11T11:49:32.980Z,0.60
2022-10-11T11:52:04.106Z,0.57
2022-10-11T11:54:48.106Z,0.70
2022-10-11T11:57:25.875Z,0.60
2022-10-11T12:00:01.041Z,0.50
2022-10-11T12:02:45.820Z,0.50
2022-10-11T12:05:16.151Z,0.50
2022-10-11T12:07:58.342Z,0.50
2022-10-11T12:10:36.352Z,0.60
2022-10-11T12:13:17.704Z,0.60
2022-10-11T12:16:01.841Z,0.60
2022-10-11T12:18:31.620Z,0.50
2022-10-11T12:21:06.172Z,0.60
2022-10-11T12:23:47.090Z,0.60
2022-10-11T12:26:38.421Z,0.60
2022-10-11T12:29:28.782Z,0.70
2022-10-11T12:32:27.764Z,0.60
2022-10-11T12:35:29.013Z,0.60
2022-10-11T12:38:07.061Z,0.60
2022-10-11T12:40:41.766Z,0.70
2022-10-11T12:43:28.828Z,0.70
2022-10-11T12:45:56.718Z,0.60
2022-10-11T12:48:43.677Z,0.60
2022-10-11T12:51:34.925Z,0.70
2022-10-11T12:54:36.113Z,0.60
2022-10-11T12:57:50.390Z,0.60
2022-10-11T13:00:25.942Z,0.50
2022-10-11T13:02:53.978Z,0.50
2022-10-11T13:05:26.538Z,0.70
2022-10-11T13:07:56.429Z,0.50
2022-10-11T13:10:28.661Z,0.50
2022-10-11T13:13:04.164Z,0.60
2022-10-11T13:15:32.519Z,0.60
2022-10-11T13:18:01.835Z,0.60
2022-10-11T13:20:31.613Z,0.50
2022-10-11T13:23:00.021Z,0.60
2022-10-11T13:25:29.922Z,0.60
2022-10-11T13:27:59.692Z,0.60
2022-10-11T13:30:30.657Z,0.60
2022-10-11T13:32:59.629Z,0.50
2022-10-11T13:35:31.482Z,0.57
2022-10-11T13:37:59.821Z,0.60
2022-10-11T13:40:28.457Z,0.60
2022-10-11T13:42:57.217Z,0.50
2022-10-11T13:45:30.511Z,0.50
2022-10-11T13:47:58.504Z,0.60
2022-10-11T13:50:32.236Z,0.60
2022-10-11T13:53:02.210Z,0.60
2022-10-11T13:55:33.467Z,0.80
2022-10-11T13:58:03.905Z,0.60
2022-10-11T14:00:36.233Z,0.60
2022-10-11T14:03:07.777Z,0.60
2022-10-11T14:05:38.498Z,0.60
2022-10-11T14:08:08.903Z,0.60
2022-10-11T14:10:36.852Z,0.60
2022-10-11T14:13:08.975Z,0.60
2022-10-11T14:15:39.062Z,0.60
2022-10-11T14:18:44.838Z,0.50
2022-10-11T14:21:27.412Z,0.60
2022-10-11T14:23:57.498Z,0.63
2022-10-11T14:26:26.819Z,0.80
2022-10-11T14:28:58.626Z,0.60
2022-10-11T14:31:28.298Z,0.60
2022-10-11T14:33:56.864Z,0.60
2022-10-11T14:36:25.042Z,0.80
2022-10-11T14:38:53.845Z,1.00
2022-10-11T14:41:21.634Z,0.60
2022-10-11T14:43:49.466Z,0.60
2022-10-11T14:46:23.513Z,0.60
2022-10-11T14:48:56.062Z,0.60
2022-10-11T14:51:27.727Z,0.60
2022-10-11T14:53:55.525Z,0.50
2022-10-11T14:56:23.440Z,0.60
2022-10-11T14:58:51.321Z,0.60
2022-10-11T15:01:19.312Z,0.53
2022-10-11T15:03:47.231Z,0.50
2022-10-11T15:06:21.494Z,0.60
2022-10-11T15:08:49.786Z,0.60
2022-10-11T15:11:20.245Z,0.60
2022-10-11T15:13:48.465Z,0.50
2022-10-11T15:16:18.972Z,0.60
2022-10-11T15:18:50.798Z,0.50
2022-10-11T15:21:21.165Z,0.60
2022-10-11T15:23:49.869Z,0.57
2022-10-11T15:26:19.697Z,0.60
2022-10-11T15:28:48.087Z,0.60
2022-10-11T15:31:16.542Z,0.60
2022-10-11T15:33:44.885Z,0.50
2022-10-11T15:36:15.265Z,0.50
2022-10-11T15:38:44.936Z,0.60
2022-10-11T15:41:13.761Z,0.60
2022-10-11T15:43:42.131Z,0.60
2022-10-11T15:46:13.904Z,0.60
2022-10-11T15:48:41.756Z,0.70
2022-10-11T15:51:09.610Z,0.60
2022-10-11T15:53:37.739Z,0.60
2022-10-11T15:56:09.521Z,0.60
2022-10-11T15:58:39.888Z,0.50
2022-10-11T16:01:10.004Z,0.60
2022-10-11T16:03:37.953Z,0.60
2022-10-11T16:06:06.111Z,0.60
2022-10-11T16:08:34.173Z,0.90
2022-10-11T16:11:02.064Z,0.53
2022-10-11T16:13:31.456Z,0.80
2022-10-11T16:16:00.933Z,0.97
2022-10-11T16:18:34.868Z,0.60
2022-10-11T16:21:08.189Z,0.73
2022-10-11T16:23:36.400Z,0.60
2022-10-11T16:26:06.548Z,0.60
2022-10-11T16:28:36.230Z,0.50
2022-10-11T16:31:08.948Z,0.60
2022-10-11T16:33:45.347Z,0.50
2022-10-11T16:36:31.600Z,0.50
2022-10-11T16:39:00.631Z,0.60
2022-10-11T16:41:28.585Z,0.60
2022-10-11T16:43:57.823Z,0.60
2022-10-11T16:46:25.885Z,0.60
2022-10-11T16:48:56.387Z,0.60
2022-10-11T16:51:25.234Z,0.60
2022-10-11T16:53:53.222Z,0.93
2022-10-11T16:56:22.553Z,0.60
2022-10-11T16:58:50.502Z,0.50
2022-10-11T17:01:19.909Z,0.60
2022-10-11T17:03:47.875Z,0.70
2022-10-11T17:06:15.721Z,0.70
2022-10-11T17:08:43.576Z,0.90
2022-10-11T17:11:11.412Z,0.60
2022-10-11T17:13:39.266Z,0.60
2022-10-11T17:16:08.510Z,0.70
2022-10-11T17:18:38.285Z,0.70
2022-10-11T17:21:08.237Z,0.60
2022-10-11T17:23:36.601Z,0.80
2022-10-11T17:26:10.779Z,0.90
2022-10-11T17:28:39.525Z,0.70
2022-10-11T17:31:08.796Z,1.00
2022-10-11T17:33:38.625Z,1.10
2022-10-11T17:36:16.246Z,0.93
2022-10-11T17:38:44.169Z,0.90
2022-10-11T17:41:12.449Z,0.73
2022-10-11T17:43:40.777Z,0.60
2022-10-11T17:46:09.733Z,0.70
2022-10-11T17:48:39.642Z,0.90
2022-10-11T17:51:09.206Z,0.93
2022-10-11T17:53:38.274Z,0.83
2022-10-11T17:56:08.038Z,0.60
2022-10-11T17:58:35.921Z,0.80
2022-10-11T18:01:05.365Z,1.00
2022-10-11T18:03:33.815Z,0.83
2022-10-11T18:06:05.603Z,0.60
2022-10-11T18:08:39.157Z,0.70
2022-10-11T18:11:11.838Z,0.60
2022-10-11T18:13:42.588Z,0.77
2022-10-11T18:16:11.621Z,0.60
2022-10-11T18:18:39.909Z,0.70
2022-10-11T18:21:09.357Z,1.40
2022-10-11T18:23:38.269Z,0.73
2022-10-11T18:26:13.802Z,0.90
2022-10-11T18:28:42.325Z,0.80
2022-10-11T18:31:13.697Z,0.80
2022-10-11T18:33:42.868Z,0.73
2022-10-11T18:36:13.656Z,0.90
2022-10-11T18:38:46.175Z,1.00
2022-10-11T18:41:15.978Z,0.80
2022-10-11T18:43:43.945Z,0.70
2022-10-11T18:46:14.569Z,0.93
2022-10-11T18:48:43.605Z,0.70
2022-10-11T18:51:15.325Z,0.70
2022-10-11T18:53:43.545Z,0.90
2022-10-11T18:56:12.882Z,0.70
2022-10-11T18:58:41.637Z,0.80
2022-10-11T19:01:12.141Z,0.77
2022-10-11T19:03:40.160Z,0.77
2022-10-11T19:06:11.206Z,0.77
2022-10-11T19:08:40.353Z,1.40
2022-10-11T19:11:09.331Z,1.30
2022-10-11T19:13:37.535Z,1.33
2022-10-11T19:16:07.510Z,0.80
2022-10-11T19:18:37.485Z,1.20
2022-10-11T19:21:10.068Z,1.30
2022-10-11T19:23:41.033Z,1.30
2022-10-11T19:26:13.056Z,0.80
2022-10-11T19:28:41.049Z,1.03
2022-10-11T19:31:11.502Z,0.80
2022-10-11T19:33:39.423Z,0.90
2022-10-11T19:36:07.805Z,0.87
2022-10-11T19:38:37.539Z,1.00
2022-10-11T19:41:06.864Z,0.70
2022-10-11T19:43:34.712Z,0.70
2022-10-11T19:46:03.218Z,0.77
2022-10-11T19:48:31.947Z,1.00
2022-10-11T19:51:03.663Z,0.80
2022-10-11T19:53:31.461Z,0.70
2022-10-11T19:56:02.095Z,0.80
2022-10-11T19:58:31.377Z,0.60
2022-10-11T20:01:04.458Z,0.67
2022-10-11T20:03:32.796Z,0.80
2022-10-11T20:06:01.253Z,0.70
2022-10-11T20:08:31.279Z,0.67
2022-10-11T20:10:59.381Z,0.60
2022-10-11T20:13:33.824Z,1.00
2022-10-11T20:16:07.031Z,0.77
2022-10-11T20:18:35.584Z,1.03
2022-10-11T20:21:06.403Z,0.70
2022-10-11T20:23:34.872Z,1.10
2022-10-11T20:26:04.733Z,0.70
2022-10-11T20:28:33.910Z,0.80
2022-10-11T20:31:05.317Z,0.80
2022-10-11T20:33:33.784Z,0.60
2022-10-11T20:36:03.617Z,0.70
2022-10-11T20:38:33.499Z,0.80
2022-10-11T20:41:05.184Z,0.70
2022-10-11T20:43:32.980Z,0.70
2022-10-11T20:46:04.252Z,0.73
2022-10-11T20:48:32.764Z,0.60
2022-10-11T20:51:00.671Z,0.60
2022-10-11T20:53:29.692Z,0.80
2022-10-11T20:55:58.092Z,0.70
2022-10-11T20:58:25.939Z,0.60
2022-10-11T21:00:53.724Z,0.60
2022-10-11T21:03:22.894Z,0.93
2022-10-11T21:05:58.723Z,0.63
2022-10-11T21:08:26.731Z,0.70
2022-10-11T21:10:55.306Z,0.57
2022-10-11T21:13:23.769Z,0.73
2022-10-11T21:15:51.579Z,0.70
2022-10-11T21:18:19.515Z,0.90
2022-10-11T21:20:48.664Z,0.70
2022-10-11T21:23:18.832Z,0.60
2022-10-11T21:25:46.693Z,0.90
2022-10-11T21:28:14.519Z,0.77
2022-10-11T21:30:42.366Z,0.70
2022-10-11T21:33:10.149Z,0.83
2022-10-11T21:35:40.411Z,0.87
2022-10-11T21:38:11.845Z,0.70
2022-10-11T21:40:40.407Z,0.80
2022-10-11T21:43:08.577Z,0.60
2022-10-11T21:45:38.231Z,0.77
2022-10-11T21:48:06.609Z,0.80
2022-10-11T21:50:34.544Z,0.70
2022-10-11T21:53:02.345Z,0.70
2022-10-11T21:55:31.608Z,0.80
2022-10-11T21:57:59.426Z,0.70
2022-10-11T22:00:27.236Z,0.90
2022-10-11T22:02:55.088Z,1.13
2022-10-11T22:05:22.896Z,0.70
2022-10-11T22:07:50.697Z,0.60
2022-10-11T22:10:18.640Z,0.60
2022-10-11T22:12:47.821Z,0.63
2022-10-11T22:15:15.776Z,0.60
2022-10-11T22:17:43.601Z,0.70
2022-10-11T22:20:11.900Z,0.63
2022-10-11T22:22:39.710Z,0.60
2022-10-11T22:25:08.385Z,0.70
2022-10-11T22:27:36.196Z,0.77
2022-10-11T22:30:05.894Z,1.03
2022-10-11T22:32:33.964Z,0.70
2022-10-11T22:35:02.139Z,0.70
2022-10-11T22:37:29.941Z,0.60
2022-10-11T22:39:57.789Z,0.83
2022-10-11T22:42:27.692Z,0.70
2022-10-11T22:44:55.644Z,0.60
2022-10-11T22:47:25.520Z,0.80
2022-10-11T22:49:53.353Z,0.70
2022-10-11T22:52:21.167Z,0.70
2022-10-11T22:54:48.975Z,0.90
2022-10-11T22:57:16.794Z,0.93
2022-10-11T22:59:44.920Z,0.70
2022-10-11T23:02:12.728Z,0.60
2022-10-11T23:04:41.989Z,1.00
2022-10-11T23:07:09.728Z,0.70
2022-10-11T23:09:37.424Z,0.80
2022-10-11T23:12:05.789Z,0.90
2022-10-11T23:14:33.638Z,0.60
2022-10-11T23:17:01.450Z,1.00
2022-10-11T23:19:29.296Z,0.80
2022-10-11T23:21:58.498Z,0.70
2022-10-11T23:24:26.291Z,1.27
2022-10-11T23:26:54.084Z,0.80
2022-10-11T23:29:21.910Z,0.60
2022-10-11T23:31:49.788Z,0.77
2022-10-11T23:34:17.614Z,0.67
2022-10-11T23:36:45.413Z,0.80
2022-10-11T23:39:15.928Z,1.23
2022-10-11T23:41:44.572Z,0.80
2022-10-11T23:44:12.393Z,0.73
2022-10-11T23:46:40.183Z,0.73
2022-10-11T23:49:08.009Z,0.60
2022-10-11T23:51:35.851Z,0.80
2022-10-11T23:54:04.131Z,1.00
2022-10-11T23:56:33.664Z,0.70
2022-10-11T23:59:01.460Z,0.83
